sensor_id;sensor_type;location;lat;lon;timestamp;temperature;humidity
39695;DHT22;25367;-35.352;149.036;2022-07-17T00:00:44;22.90;36.70
39695;DHT22;25367;-35.352;149.036;2022-07-17T00:03:13;22.90;36.70
39695;DHT22;25367;-35.352;149.036;2022-07-17T00:05:43;23.00;36.50
39695;DHT22;25367;-35.352;149.036;2022-07-17T00:08:13;23.00;36.30
39695;DHT22;25367;-35.352;149.036;2022-07-17T00:10:45;23.00;36.20
39695;DHT22;25367;-35.352;149.036;2022-07-17T00:13:15;23.10;36.20
39695;DHT22;25367;-35.352;149.036;2022-07-17T00:15:44;23.10;36.10
39695;DHT22;25367;-35.352;149.036;2022-07-17T00:18:14;23.10;36.00
39695;DHT22;25367;-35.352;149.036;2022-07-17T00:20:43;23.10;36.00
39695;DHT22;25367;-35.352;149.036;2022-07-17T00:23:13;23.20;36.00
39695;DHT22;25367;-35.352;149.036;2022-07-17T00:25:42;23.10;36.00
39695;DHT22;25367;-35.352;149.036;2022-07-17T00:28:13;23.10;36.10
39695;DHT22;25367;-35.352;149.036;2022-07-17T00:30:43;23.10;36.10
39695;DHT22;25367;-35.352;149.036;2022-07-17T00:33:12;23.10;36.00
39695;DHT22;25367;-35.352;149.036;2022-07-17T00:35:42;23.10;36.10
39695;DHT22;25367;-35.352;149.036;2022-07-17T00:38:11;23.10;36.10
39695;DHT22;25367;-35.352;149.036;2022-07-17T00:40:40;23.10;36.10
39695;DHT22;25367;-35.352;149.036;2022-07-17T00:43:13;23.20;36.10
39695;DHT22;25367;-35.352;149.036;2022-07-17T00:45:42;23.20;36.00
39695;DHT22;25367;-35.352;149.036;2022-07-17T00:48:12;23.20;36.00
39695;DHT22;25367;-35.352;149.036;2022-07-17T00:50:42;23.30;36.00
39695;DHT22;25367;-35.352;149.036;2022-07-17T00:53:11;23.30;36.00
39695;DHT22;25367;-35.352;149.036;2022-07-17T00:55:41;23.30;35.90
39695;DHT22;25367;-35.352;149.036;2022-07-17T00:58:16;23.40;36.00
39695;DHT22;25367;-35.352;149.036;2022-07-17T01:00:46;23.40;36.00
39695;DHT22;25367;-35.352;149.036;2022-07-17T01:03:16;23.40;36.00
39695;DHT22;25367;-35.352;149.036;2022-07-17T01:05:46;23.40;36.00
39695;DHT22;25367;-35.352;149.036;2022-07-17T01:08:15;23.50;36.00
39695;DHT22;25367;-35.352;149.036;2022-07-17T01:10:45;23.50;35.90
39695;DHT22;25367;-35.352;149.036;2022-07-17T01:13:17;23.60;35.90
39695;DHT22;25367;-35.352;149.036;2022-07-17T01:15:46;23.70;35.90
39695;DHT22;25367;-35.352;149.036;2022-07-17T01:18:16;23.70;35.70
39695;DHT22;25367;-35.352;149.036;2022-07-17T01:20:47;23.80;35.70
39695;DHT22;25367;-35.352;149.036;2022-07-17T01:23:20;23.80;35.80
39695;DHT22;25367;-35.352;149.036;2022-07-17T01:25:49;23.80;35.80
39695;DHT22;25367;-35.352;149.036;2022-07-17T01:28:19;23.80;35.90
39695;DHT22;25367;-35.352;149.036;2022-07-17T01:30:50;23.80;35.90
39695;DHT22;25367;-35.352;149.036;2022-07-17T01:33:21;23.80;35.90
39695;DHT22;25367;-35.352;149.036;2022-07-17T01:35:50;23.80;35.90
39695;DHT22;25367;-35.352;149.036;2022-07-17T01:38:22;23.90;35.90
39695;DHT22;25367;-35.352;149.036;2022-07-17T01:40:51;23.90;35.90
39695;DHT22;25367;-35.352;149.036;2022-07-17T01:43:21;23.90;35.80
39695;DHT22;25367;-35.352;149.036;2022-07-17T01:45:50;24.10;35.70
39695;DHT22;25367;-35.352;149.036;2022-07-17T01:48:27;24.10;35.80
39695;DHT22;25367;-35.352;149.036;2022-07-17T01:50:57;24.10;35.60
39695;DHT22;25367;-35.352;149.036;2022-07-17T01:53:28;24.10;35.50
39695;DHT22;25367;-35.352;149.036;2022-07-17T01:55:57;24.10;35.50
39695;DHT22;25367;-35.352;149.036;2022-07-17T01:58:27;24.10;35.60
39695;DHT22;25367;-35.352;149.036;2022-07-17T02:00:56;24.10;35.60
39695;DHT22;25367;-35.352;149.036;2022-07-17T02:03:26;24.10;35.60
39695;DHT22;25367;-35.352;149.036;2022-07-17T02:05:55;24.10;35.50
39695;DHT22;25367;-35.352;149.036;2022-07-17T02:08:24;24.10;35.60
39695;DHT22;25367;-35.352;149.036;2022-07-17T02:10:55;24.10;35.60
39695;DHT22;25367;-35.352;149.036;2022-07-17T02:13:25;24.10;35.50
39695;DHT22;25367;-35.352;149.036;2022-07-17T02:15:54;24.10;35.60
39695;DHT22;25367;-35.352;149.036;2022-07-17T02:18:26;24.10;35.60
39695;DHT22;25367;-35.352;149.036;2022-07-17T02:20:56;24.10;35.50
39695;DHT22;25367;-35.352;149.036;2022-07-17T02:23:25;24.10;35.50
39695;DHT22;25367;-35.352;149.036;2022-07-17T02:25:57;24.10;35.60
39695;DHT22;25367;-35.352;149.036;2022-07-17T02:28:26;24.10;35.70
39695;DHT22;25367;-35.352;149.036;2022-07-17T02:30:56;24.00;35.70
39695;DHT22;25367;-35.352;149.036;2022-07-17T02:33:25;24.00;35.70
39695;DHT22;25367;-35.352;149.036;2022-07-17T02:35:55;24.00;35.80
39695;DHT22;25367;-35.352;149.036;2022-07-17T02:38:24;24.00;35.70
39695;DHT22;25367;-35.352;149.036;2022-07-17T02:40:57;24.00;35.70
39695;DHT22;25367;-35.352;149.036;2022-07-17T02:46:32;24.30;35.80
39695;DHT22;25367;-35.352;149.036;2022-07-17T02:49:42;24.40;35.90
39695;DHT22;25367;-35.352;149.036;2022-07-17T02:52:48;24.50;36.10
39695;DHT22;25367;-35.352;149.036;2022-07-17T02:55:28;24.60;36.20
39695;DHT22;25367;-35.352;149.036;2022-07-17T02:58:26;24.70;36.20
39695;DHT22;25367;-35.352;149.036;2022-07-17T03:04:21;24.90;36.40
39695;DHT22;25367;-35.352;149.036;2022-07-17T03:07:06;25.00;36.50
39695;DHT22;25367;-35.352;149.036;2022-07-17T03:10:00;25.10;36.40
39695;DHT22;25367;-35.352;149.036;2022-07-17T03:12:58;25.30;36.50
39695;DHT22;25367;-35.352;149.036;2022-07-17T03:15:49;25.30;36.30
39695;DHT22;25367;-35.352;149.036;2022-07-17T03:19:08;25.50;36.20
39695;DHT22;25367;-35.352;149.036;2022-07-17T03:22:01;25.40;36.00
39695;DHT22;25367;-35.352;149.036;2022-07-17T03:24:57;25.40;35.90
39695;DHT22;25367;-35.352;149.036;2022-07-17T03:28:08;25.40;35.80
39695;DHT22;25367;-35.352;149.036;2022-07-17T03:31:06;25.40;35.90
39695;DHT22;25367;-35.352;149.036;2022-07-17T03:34:21;25.30;35.80
39695;DHT22;25367;-35.352;149.036;2022-07-17T03:40:22;25.30;35.90
39695;DHT22;25367;-35.352;149.036;2022-07-17T03:43:08;25.40;35.90
39695;DHT22;25367;-35.352;149.036;2022-07-17T03:46:01;25.30;35.80
39695;DHT22;25367;-35.352;149.036;2022-07-17T03:48:55;25.40;35.80
39695;DHT22;25367;-35.352;149.036;2022-07-17T03:52:00;25.40;35.70
39695;DHT22;25367;-35.352;149.036;2022-07-17T03:58:06;25.40;35.60
39695;DHT22;25367;-35.352;149.036;2022-07-17T04:01:05;25.30;35.60
39695;DHT22;25367;-35.352;149.036;2022-07-17T04:07:02;25.30;35.80
39695;DHT22;25367;-35.352;149.036;2022-07-17T04:09:35;25.10;36.30
39695;DHT22;25367;-35.352;149.036;2022-07-17T04:12:22;25.00;36.50
39695;DHT22;25367;-35.352;149.036;2022-07-17T04:17:51;25.00;36.30
39695;DHT22;25367;-35.352;149.036;2022-07-17T04:20:59;24.80;36.50
39695;DHT22;25367;-35.352;149.036;2022-07-17T04:23:42;24.80;36.70
39695;DHT22;25367;-35.352;149.036;2022-07-17T04:26:16;24.90;36.60
39695;DHT22;25367;-35.352;149.036;2022-07-17T04:29:04;24.90;36.40
39695;DHT22;25367;-35.352;149.036;2022-07-17T04:31:43;25.00;36.30
39695;DHT22;25367;-35.352;149.036;2022-07-17T04:34:31;24.90;36.40
39695;DHT22;25367;-35.352;149.036;2022-07-17T04:40:39;24.90;36.50
39695;DHT22;25367;-35.352;149.036;2022-07-17T04:43:22;24.80;36.60
39695;DHT22;25367;-35.352;149.036;2022-07-17T04:49:27;24.70;36.50
39695;DHT22;25367;-35.352;149.036;2022-07-17T04:52:08;24.70;36.70
39695;DHT22;25367;-35.352;149.036;2022-07-17T04:55:12;24.70;36.90
39695;DHT22;25367;-35.352;149.036;2022-07-17T04:58:05;24.80;36.80
39695;DHT22;25367;-35.352;149.036;2022-07-17T05:00:41;24.90;36.80
39695;DHT22;25367;-35.352;149.036;2022-07-17T05:09:29;25.00;36.30
39695;DHT22;25367;-35.352;149.036;2022-07-17T05:12:26;25.00;36.10
39695;DHT22;25367;-35.352;149.036;2022-07-17T05:15:10;25.10;36.00
39695;DHT22;25367;-35.352;149.036;2022-07-17T05:17:57;25.10;35.90
39695;DHT22;25367;-35.352;149.036;2022-07-17T05:20:49;25.10;35.90
39695;DHT22;25367;-35.352;149.036;2022-07-17T05:23:39;25.10;35.80
39695;DHT22;25367;-35.352;149.036;2022-07-17T05:26:33;25.10;35.90
39695;DHT22;25367;-35.352;149.036;2022-07-17T05:29:20;25.10;35.80
39695;DHT22;25367;-35.352;149.036;2022-07-17T05:32:22;25.10;35.80
39695;DHT22;25367;-35.352;149.036;2022-07-17T05:35:00;25.10;35.80
39695;DHT22;25367;-35.352;149.036;2022-07-17T05:37:45;25.00;35.80
39695;DHT22;25367;-35.352;149.036;2022-07-17T05:40:33;25.00;35.80
39695;DHT22;25367;-35.352;149.036;2022-07-17T05:43:22;25.10;35.80
39695;DHT22;25367;-35.352;149.036;2022-07-17T05:48:49;25.00;35.80
39695;DHT22;25367;-35.352;149.036;2022-07-17T05:51:48;24.90;35.80
39695;DHT22;25367;-35.352;149.036;2022-07-17T05:58:01;24.90;35.90
39695;DHT22;25367;-35.352;149.036;2022-07-17T06:00:38;24.80;35.90
39695;DHT22;25367;-35.352;149.036;2022-07-17T06:09:22;24.80;35.90
39695;DHT22;25367;-35.352;149.036;2022-07-17T06:14:52;24.80;35.90
39695;DHT22;25367;-35.352;149.036;2022-07-17T06:20:20;24.90;35.70
39695;DHT22;25367;-35.352;149.036;2022-07-17T06:23:01;24.90;35.60
39695;DHT22;25367;-35.352;149.036;2022-07-17T06:25:36;24.90;35.80
39695;DHT22;25367;-35.352;149.036;2022-07-17T06:28:51;24.80;35.80
39695;DHT22;25367;-35.352;149.036;2022-07-17T06:35:04;24.70;36.30
39695;DHT22;25367;-35.352;149.036;2022-07-17T06:37:41;24.60;36.30
39695;DHT22;25367;-35.352;149.036;2022-07-17T06:40:28;24.70;36.30
39695;DHT22;25367;-35.352;149.036;2022-07-17T06:43:00;24.80;36.30
39695;DHT22;25367;-35.352;149.036;2022-07-17T06:48:36;24.70;36.40
39695;DHT22;25367;-35.352;149.036;2022-07-17T06:51:11;24.80;36.30
39695;DHT22;25367;-35.352;149.036;2022-07-17T06:53:41;24.90;36.40
39695;DHT22;25367;-35.352;149.036;2022-07-17T06:56:11;24.90;36.40
39695;DHT22;25367;-35.352;149.036;2022-07-17T06:58:41;25.00;36.10
39695;DHT22;25367;-35.352;149.036;2022-07-17T07:01:11;25.10;35.90
39695;DHT22;25367;-35.352;149.036;2022-07-17T07:03:44;25.10;35.70
39695;DHT22;25367;-35.352;149.036;2022-07-17T07:06:20;25.00;35.80
39695;DHT22;25367;-35.352;149.036;2022-07-17T07:08:51;25.00;35.70
39695;DHT22;25367;-35.352;149.036;2022-07-17T07:11:21;25.00;35.70
39695;DHT22;25367;-35.352;149.036;2022-07-17T07:13:51;25.10;35.60
39695;DHT22;25367;-35.352;149.036;2022-07-17T07:16:21;25.10;35.50
39695;DHT22;25367;-35.352;149.036;2022-07-17T07:18:51;25.10;35.60
39695;DHT22;25367;-35.352;149.036;2022-07-17T07:21:23;25.00;35.50
39695;DHT22;25367;-35.352;149.036;2022-07-17T07:23:53;25.00;35.50
39695;DHT22;25367;-35.352;149.036;2022-07-17T07:26:23;24.80;36.20
39695;DHT22;25367;-35.352;149.036;2022-07-17T07:28:54;24.70;36.40
39695;DHT22;25367;-35.352;149.036;2022-07-17T07:31:25;24.80;36.30
39695;DHT22;25367;-35.352;149.036;2022-07-17T07:33:56;24.80;36.30
39695;DHT22;25367;-35.352;149.036;2022-07-17T07:36:29;24.80;36.20
39695;DHT22;25367;-35.352;149.036;2022-07-17T07:39:04;24.80;36.80
39695;DHT22;25367;-35.352;149.036;2022-07-17T07:41:37;24.80;36.10
39695;DHT22;25367;-35.352;149.036;2022-07-17T07:44:07;24.90;36.10
39695;DHT22;25367;-35.352;149.036;2022-07-17T07:46:38;24.80;36.00
39695;DHT22;25367;-35.352;149.036;2022-07-17T07:49:08;24.80;36.00
39695;DHT22;25367;-35.352;149.036;2022-07-17T07:51:45;24.80;36.00
39695;DHT22;25367;-35.352;149.036;2022-07-17T07:54:15;24.80;36.00
39695;DHT22;25367;-35.352;149.036;2022-07-17T07:56:45;24.70;36.10
39695;DHT22;25367;-35.352;149.036;2022-07-17T07:59:16;24.70;36.10
39695;DHT22;25367;-35.352;149.036;2022-07-17T08:01:47;24.70;36.10
39695;DHT22;25367;-35.352;149.036;2022-07-17T08:04:17;24.60;36.10
39695;DHT22;25367;-35.352;149.036;2022-07-17T08:06:50;24.50;36.10
39695;DHT22;25367;-35.352;149.036;2022-07-17T08:09:21;24.50;36.20
39695;DHT22;25367;-35.352;149.036;2022-07-17T08:11:51;24.60;36.20
39695;DHT22;25367;-35.352;149.036;2022-07-17T08:14:21;24.60;36.20
39695;DHT22;25367;-35.352;149.036;2022-07-17T08:16:58;24.50;36.10
39695;DHT22;25367;-35.352;149.036;2022-07-17T08:19:28;24.60;36.20
39695;DHT22;25367;-35.352;149.036;2022-07-17T08:22:06;24.50;37.00
39695;DHT22;25367;-35.352;149.036;2022-07-17T08:24:36;24.50;36.40
39695;DHT22;25367;-35.352;149.036;2022-07-17T08:27:07;24.50;36.40
39695;DHT22;25367;-35.352;149.036;2022-07-17T08:29:37;24.50;36.40
39695;DHT22;25367;-35.352;149.036;2022-07-17T08:32:11;24.50;36.40
39695;DHT22;25367;-35.352;149.036;2022-07-17T08:34:41;24.40;36.40
39695;DHT22;25367;-35.352;149.036;2022-07-17T08:37:15;24.40;36.50
39695;DHT22;25367;-35.352;149.036;2022-07-17T08:39:45;24.40;36.50
39695;DHT22;25367;-35.352;149.036;2022-07-17T08:42:15;24.40;36.30
39695;DHT22;25367;-35.352;149.036;2022-07-17T08:44:45;24.40;36.40
39695;DHT22;25367;-35.352;149.036;2022-07-17T08:47:18;24.50;36.40
39695;DHT22;25367;-35.352;149.036;2022-07-17T08:49:51;24.40;37.00
39695;DHT22;25367;-35.352;149.036;2022-07-17T08:52:23;24.40;36.30
39695;DHT22;25367;-35.352;149.036;2022-07-17T08:54:55;24.40;36.30
39695;DHT22;25367;-35.352;149.036;2022-07-17T08:57:25;24.40;36.30
39695;DHT22;25367;-35.352;149.036;2022-07-17T08:59:57;24.30;36.50
39695;DHT22;25367;-35.352;149.036;2022-07-17T09:02:28;24.20;36.60
39695;DHT22;25367;-35.352;149.036;2022-07-17T09:04:59;24.10;37.00
39695;DHT22;25367;-35.352;149.036;2022-07-17T09:07:33;23.70;37.80
39695;DHT22;25367;-35.352;149.036;2022-07-17T09:10:05;24.10;38.00
39695;DHT22;25367;-35.352;149.036;2022-07-17T09:12:36;24.00;38.10
39695;DHT22;25367;-35.352;149.036;2022-07-17T09:15:17;24.40;37.40
39695;DHT22;25367;-35.352;149.036;2022-07-17T09:17:54;24.60;36.90
39695;DHT22;25367;-35.352;149.036;2022-07-17T09:20:25;24.60;36.60
39695;DHT22;25367;-35.352;149.036;2022-07-17T09:23:06;24.70;36.50
39695;DHT22;25367;-35.352;149.036;2022-07-17T09:25:41;24.60;36.40
39695;DHT22;25367;-35.352;149.036;2022-07-17T09:28:13;24.60;36.40
39695;DHT22;25367;-35.352;149.036;2022-07-17T09:30:45;24.60;36.40
39695;DHT22;25367;-35.352;149.036;2022-07-17T09:33:19;24.50;36.40
39695;DHT22;25367;-35.352;149.036;2022-07-17T09:35:51;24.50;36.50
39695;DHT22;25367;-35.352;149.036;2022-07-17T09:38:32;24.60;36.40
39695;DHT22;25367;-35.352;149.036;2022-07-17T09:41:04;24.50;36.40
39695;DHT22;25367;-35.352;149.036;2022-07-17T09:43:43;24.50;36.40
39695;DHT22;25367;-35.352;149.036;2022-07-17T09:46:20;24.50;36.40
39695;DHT22;25367;-35.352;149.036;2022-07-17T09:48:54;24.30;36.90
39695;DHT22;25367;-35.352;149.036;2022-07-17T09:51:28;24.20;36.90
39695;DHT22;25367;-35.352;149.036;2022-07-17T09:54:15;23.90;37.60
39695;DHT22;25367;-35.352;149.036;2022-07-17T09:56:51;23.60;38.50
39695;DHT22;25367;-35.352;149.036;2022-07-17T09:59:21;23.70;38.50
39695;DHT22;25367;-35.352;149.036;2022-07-17T10:01:52;23.90;38.40
39695;DHT22;25367;-35.352;149.036;2022-07-17T10:04:25;23.90;38.50
39695;DHT22;25367;-35.352;149.036;2022-07-17T10:06:56;24.30;37.80
39695;DHT22;25367;-35.352;149.036;2022-07-17T10:09:29;24.60;37.10
39695;DHT22;25367;-35.352;149.036;2022-07-17T10:11:59;24.80;36.70
39695;DHT22;25367;-35.352;149.036;2022-07-17T10:14:29;24.80;36.50
39695;DHT22;25367;-35.352;149.036;2022-07-17T10:17:08;24.90;36.40
39695;DHT22;25367;-35.352;149.036;2022-07-17T10:19:47;24.80;36.50
39695;DHT22;25367;-35.352;149.036;2022-07-17T10:22:16;24.70;36.50
39695;DHT22;25367;-35.352;149.036;2022-07-17T10:24:52;24.70;36.60
39695;DHT22;25367;-35.352;149.036;2022-07-17T10:27:23;24.70;36.70
39695;DHT22;25367;-35.352;149.036;2022-07-17T10:30:04;24.70;36.60
39695;DHT22;25367;-35.352;149.036;2022-07-17T10:32:35;24.60;36.60
39695;DHT22;25367;-35.352;149.036;2022-07-17T10:35:06;24.60;36.70
39695;DHT22;25367;-35.352;149.036;2022-07-17T10:37:40;24.60;36.60
39695;DHT22;25367;-35.352;149.036;2022-07-17T10:40:17;24.50;36.50
39695;DHT22;25367;-35.352;149.036;2022-07-17T10:42:57;24.60;36.30
39695;DHT22;25367;-35.352;149.036;2022-07-17T10:45:29;24.70;36.20
39695;DHT22;25367;-35.352;149.036;2022-07-17T10:48:01;24.80;36.00
39695;DHT22;25367;-35.352;149.036;2022-07-17T10:50:33;24.70;35.90
39695;DHT22;25367;-35.352;149.036;2022-07-17T10:53:08;24.80;35.90
39695;DHT22;25367;-35.352;149.036;2022-07-17T10:55:42;24.80;35.80
39695;DHT22;25367;-35.352;149.036;2022-07-17T10:58:20;24.80;35.80
39695;DHT22;25367;-35.352;149.036;2022-07-17T11:01:04;24.80;35.90
39695;DHT22;25367;-35.352;149.036;2022-07-17T11:03:38;24.80;35.80
39695;DHT22;25367;-35.352;149.036;2022-07-17T11:06:13;24.70;35.80
39695;DHT22;25367;-35.352;149.036;2022-07-17T11:08:44;24.70;35.70
39695;DHT22;25367;-35.352;149.036;2022-07-17T11:11:18;24.70;35.80
39695;DHT22;25367;-35.352;149.036;2022-07-17T11:13:47;24.60;35.70
39695;DHT22;25367;-35.352;149.036;2022-07-17T11:16:26;24.60;35.80
39695;DHT22;25367;-35.352;149.036;2022-07-17T11:18:56;24.50;36.00
39695;DHT22;25367;-35.352;149.036;2022-07-17T11:21:25;24.50;36.00
39695;DHT22;25367;-35.352;149.036;2022-07-17T11:23:56;24.50;36.00
39695;DHT22;25367;-35.352;149.036;2022-07-17T11:26:27;24.40;36.20
39695;DHT22;25367;-35.352;149.036;2022-07-17T11:28:57;24.30;36.50
39695;DHT22;25367;-35.352;149.036;2022-07-17T11:31:27;24.30;36.70
39695;DHT22;25367;-35.352;149.036;2022-07-17T11:33:58;24.30;40.10
39695;DHT22;25367;-35.352;149.036;2022-07-17T11:36:29;24.30;39.50
39695;DHT22;25367;-35.352;149.036;2022-07-17T11:38:59;24.30;38.70
39695;DHT22;25367;-35.352;149.036;2022-07-17T11:41:36;24.40;38.50
39695;DHT22;25367;-35.352;149.036;2022-07-17T11:44:06;24.40;38.60
39695;DHT22;25367;-35.352;149.036;2022-07-17T11:46:37;24.30;38.70
39695;DHT22;25367;-35.352;149.036;2022-07-17T11:49:07;24.30;39.40
39695;DHT22;25367;-35.352;149.036;2022-07-17T11:51:41;24.20;39.40
39695;DHT22;25367;-35.352;149.036;2022-07-17T11:54:13;24.20;39.40
39695;DHT22;25367;-35.352;149.036;2022-07-17T11:56:52;23.90;39.60
39695;DHT22;25367;-35.352;149.036;2022-07-17T11:59:26;23.90;39.60
39695;DHT22;25367;-35.352;149.036;2022-07-17T12:01:56;23.90;39.60
39695;DHT22;25367;-35.352;149.036;2022-07-17T12:04:26;23.80;39.50
39695;DHT22;25367;-35.352;149.036;2022-07-17T12:07:04;23.90;39.50
39695;DHT22;25367;-35.352;149.036;2022-07-17T12:09:34;24.00;39.40
39695;DHT22;25367;-35.352;149.036;2022-07-17T12:12:06;24.00;39.20
39695;DHT22;25367;-35.352;149.036;2022-07-17T12:14:45;24.00;39.10
39695;DHT22;25367;-35.352;149.036;2022-07-17T12:17:14;23.90;39.10
39695;DHT22;25367;-35.352;149.036;2022-07-17T12:19:44;23.90;39.00
39695;DHT22;25367;-35.352;149.036;2022-07-17T12:22:13;23.90;39.40
39695;DHT22;25367;-35.352;149.036;2022-07-17T12:24:45;23.80;39.00
39695;DHT22;25367;-35.352;149.036;2022-07-17T12:27:17;23.90;38.90
39695;DHT22;25367;-35.352;149.036;2022-07-17T12:29:47;23.80;39.10
39695;DHT22;25367;-35.352;149.036;2022-07-17T12:32:18;23.70;39.20
39695;DHT22;25367;-35.352;149.036;2022-07-17T12:34:48;23.80;39.30
39695;DHT22;25367;-35.352;149.036;2022-07-17T12:37:19;23.70;38.20
39695;DHT22;25367;-35.352;149.036;2022-07-17T12:39:49;23.70;38.10
39695;DHT22;25367;-35.352;149.036;2022-07-17T12:42:21;23.70;38.50
39695;DHT22;25367;-35.352;149.036;2022-07-17T12:44:50;23.70;38.60
39695;DHT22;25367;-35.352;149.036;2022-07-17T12:47:20;23.80;38.60
39695;DHT22;25367;-35.352;149.036;2022-07-17T12:49:49;23.70;38.50
39695;DHT22;25367;-35.352;149.036;2022-07-17T12:52:19;23.80;38.60
39695;DHT22;25367;-35.352;149.036;2022-07-17T12:54:48;23.90;38.60
39695;DHT22;25367;-35.352;149.036;2022-07-17T12:57:19;23.90;39.10
39695;DHT22;25367;-35.352;149.036;2022-07-17T12:59:49;23.90;38.60
39695;DHT22;25367;-35.352;149.036;2022-07-17T13:02:18;23.90;38.50
39695;DHT22;25367;-35.352;149.036;2022-07-17T13:04:48;23.90;38.60
39695;DHT22;25367;-35.352;149.036;2022-07-17T13:07:17;23.90;38.50
39695;DHT22;25367;-35.352;149.036;2022-07-17T13:09:46;23.90;38.50
39695;DHT22;25367;-35.352;149.036;2022-07-17T13:12:16;24.00;38.40
39695;DHT22;25367;-35.352;149.036;2022-07-17T13:14:47;24.00;38.30
39695;DHT22;25367;-35.352;149.036;2022-07-17T13:17:17;24.00;38.30
39695;DHT22;25367;-35.352;149.036;2022-07-17T13:19:46;24.00;38.20
39695;DHT22;25367;-35.352;149.036;2022-07-17T13:22:15;24.00;38.20
39695;DHT22;25367;-35.352;149.036;2022-07-17T13:24:45;24.00;38.30
39695;DHT22;25367;-35.352;149.036;2022-07-17T13:27:14;24.00;38.30
39695;DHT22;25367;-35.352;149.036;2022-07-17T13:29:45;24.00;38.40
39695;DHT22;25367;-35.352;149.036;2022-07-17T13:32:15;23.90;38.50
39695;DHT22;25367;-35.352;149.036;2022-07-17T13:34:44;23.90;38.50
39695;DHT22;25367;-35.352;149.036;2022-07-17T13:37:14;23.90;38.50
39695;DHT22;25367;-35.352;149.036;2022-07-17T13:39:43;23.80;38.60
39695;DHT22;25367;-35.352;149.036;2022-07-17T13:42:13;23.80;38.60
39695;DHT22;25367;-35.352;149.036;2022-07-17T13:44:42;23.90;38.60
39695;DHT22;25367;-35.352;149.036;2022-07-17T13:47:13;23.90;38.60
39695;DHT22;25367;-35.352;149.036;2022-07-17T13:49:43;23.80;38.60
39695;DHT22;25367;-35.352;149.036;2022-07-17T13:52:12;23.90;38.60
39695;DHT22;25367;-35.352;149.036;2022-07-17T13:54:42;23.90;38.60
39695;DHT22;25367;-35.352;149.036;2022-07-17T13:57:11;23.80;38.60
39695;DHT22;25367;-35.352;149.036;2022-07-17T13:59:40;23.80;38.70
39695;DHT22;25367;-35.352;149.036;2022-07-17T14:02:12;23.80;38.70
39695;DHT22;25367;-35.352;149.036;2022-07-17T14:04:41;23.70;38.70
39695;DHT22;25367;-35.352;149.036;2022-07-17T14:07:11;23.70;38.90
39695;DHT22;25367;-35.352;149.036;2022-07-17T14:09:40;23.70;38.90
39695;DHT22;25367;-35.352;149.036;2022-07-17T14:12:10;23.70;38.90
39695;DHT22;25367;-35.352;149.036;2022-07-17T14:14:39;23.70;38.80
39695;DHT22;25367;-35.352;149.036;2022-07-17T14:17:08;23.70;38.80
39695;DHT22;25367;-35.352;149.036;2022-07-17T14:19:40;23.70;38.80
39695;DHT22;25367;-35.352;149.036;2022-07-17T14:22:09;23.70;38.80
39695;DHT22;25367;-35.352;149.036;2022-07-17T14:24:39;23.70;38.90
39695;DHT22;25367;-35.352;149.036;2022-07-17T14:27:08;23.70;38.80
39695;DHT22;25367;-35.352;149.036;2022-07-17T14:29:38;23.60;38.90
39695;DHT22;25367;-35.352;149.036;2022-07-17T14:32:07;23.60;39.00
39695;DHT22;25367;-35.352;149.036;2022-07-17T14:34:39;23.60;39.00
39695;DHT22;25367;-35.352;149.036;2022-07-17T14:37:09;23.60;39.10
39695;DHT22;25367;-35.352;149.036;2022-07-17T14:39:38;23.60;39.10
39695;DHT22;25367;-35.352;149.036;2022-07-17T14:42:07;23.60;39.10
39695;DHT22;25367;-35.352;149.036;2022-07-17T14:44:37;23.60;39.20
39695;DHT22;25367;-35.352;149.036;2022-07-17T14:47:06;23.70;39.10
39695;DHT22;25367;-35.352;149.036;2022-07-17T14:49:36;23.70;39.00
39695;DHT22;25367;-35.352;149.036;2022-07-17T14:52:08;23.70;39.10
39695;DHT22;25367;-35.352;149.036;2022-07-17T14:54:38;23.70;39.10
39695;DHT22;25367;-35.352;149.036;2022-07-17T14:57:07;23.60;39.10
39695;DHT22;25367;-35.352;149.036;2022-07-17T14:59:37;23.60;39.20
39695;DHT22;25367;-35.352;149.036;2022-07-17T15:02:06;23.50;39.20
39695;DHT22;25367;-35.352;149.036;2022-07-17T15:04:36;23.60;39.30
39695;DHT22;25367;-35.352;149.036;2022-07-17T15:07:07;23.60;39.20
39695;DHT22;25367;-35.352;149.036;2022-07-17T15:09:36;23.60;39.30
39695;DHT22;25367;-35.352;149.036;2022-07-17T15:12:06;23.60;39.20
39695;DHT22;25367;-35.352;149.036;2022-07-17T15:14:36;23.60;39.20
39695;DHT22;25367;-35.352;149.036;2022-07-17T15:17:05;23.60;39.20
39695;DHT22;25367;-35.352;149.036;2022-07-17T15:19:35;23.60;39.20
39695;DHT22;25367;-35.352;149.036;2022-07-17T15:22:06;23.60;39.20
39695;DHT22;25367;-35.352;149.036;2022-07-17T15:24:35;23.60;39.20
39695;DHT22;25367;-35.352;149.036;2022-07-17T15:27:05;23.60;39.30
39695;DHT22;25367;-35.352;149.036;2022-07-17T15:29:34;23.50;39.30
39695;DHT22;25367;-35.352;149.036;2022-07-17T15:32:04;23.50;39.30
39695;DHT22;25367;-35.352;149.036;2022-07-17T15:34:34;23.50;39.30
39695;DHT22;25367;-35.352;149.036;2022-07-17T15:37:08;23.50;39.40
39695;DHT22;25367;-35.352;149.036;2022-07-17T15:39:37;23.50;39.40
39695;DHT22;25367;-35.352;149.036;2022-07-17T15:42:07;23.50;39.40
39695;DHT22;25367;-35.352;149.036;2022-07-17T15:44:36;23.50;39.40
39695;DHT22;25367;-35.352;149.036;2022-07-17T15:47:05;23.50;39.30
39695;DHT22;25367;-35.352;149.036;2022-07-17T15:49:35;23.50;39.40
39695;DHT22;25367;-35.352;149.036;2022-07-17T15:52:07;23.50;39.50
39695;DHT22;25367;-35.352;149.036;2022-07-17T15:54:36;23.40;39.50
39695;DHT22;25367;-35.352;149.036;2022-07-17T15:57:06;23.50;39.40
39695;DHT22;25367;-35.352;149.036;2022-07-17T15:59:35;23.50;39.40
39695;DHT22;25367;-35.352;149.036;2022-07-17T16:02:05;23.40;39.40
39695;DHT22;25367;-35.352;149.036;2022-07-17T16:04:34;23.50;39.50
39695;DHT22;25367;-35.352;149.036;2022-07-17T16:07:04;23.40;39.50
39695;DHT22;25367;-35.352;149.036;2022-07-17T16:09:35;23.40;39.50
39695;DHT22;25367;-35.352;149.036;2022-07-17T16:12:04;23.40;39.60
39695;DHT22;25367;-35.352;149.036;2022-07-17T16:14:34;23.40;39.50
39695;DHT22;25367;-35.352;149.036;2022-07-17T16:17:03;23.50;39.60
39695;DHT22;25367;-35.352;149.036;2022-07-17T16:19:33;23.50;39.50
39695;DHT22;25367;-35.352;149.036;2022-07-17T16:22:02;23.40;39.40
39695;DHT22;25367;-35.352;149.036;2022-07-17T16:24:34;23.40;39.50
39695;DHT22;25367;-35.352;149.036;2022-07-17T16:27:03;23.40;39.50